sensor_id;sensor_type;location;lat;lon;timestamp;temperature;humidity
67722;SHT31;58309;45.292;11.820;2023-02-15T00:02:14;1.65;99.99
67722;SHT31;58309;45.292;11.820;2023-02-15T00:04:40;1.68;99.99
67722;SHT31;58309;45.292;11.820;2023-02-15T00:07:15;1.70;99.99
67722;SHT31;58309;45.292;11.820;2023-02-15T00:09:41;1.74;99.99
67722;SHT31;58309;45.292;11.820;2023-02-15T00:12:08;1.71;99.99
67722;SHT31;58309;45.292;11.820;2023-02-15T00:14:34;1.75;99.99
67722;SHT31;58309;45.292;11.820;2023-02-15T00:17:00;1.74;99.99
67722;SHT31;58309;45.292;11.820;2023-02-15T00:19:25;1.70;99.99
67722;SHT31;58309;45.292;11.820;2023-02-15T00:21:51;1.67;99.99
67722;SHT31;58309;45.292;11.820;2023-02-15T00:24:18;1.60;99.99
67722;SHT31;58309;45.292;11.820;2023-02-15T00:26:45;1.48;99.99
67722;SHT31;58309;45.292;11.820;2023-02-15T00:29:12;1.39;99.84
67722;SHT31;58309;45.292;11.820;2023-02-15T00:31:38;1.33;99.88
67722;SHT31;58309;45.292;11.820;2023-02-15T00:34:11;1.23;99.99
67722;SHT31;58309;45.292;11.820;2023-02-15T00:36:37;1.12;99.85
67722;SHT31;58309;45.292;11.820;2023-02-15T00:39:03;1.04;99.99
67722;SHT31;58309;45.292;11.820;2023-02-15T00:41:31;0.95;99.99
67722;SHT31;58309;45.292;11.820;2023-02-15T00:43:56;0.93;99.99
67722;SHT31;58309;45.292;11.820;2023-02-15T00:46:22;0.91;99.99
67722;SHT31;58309;45.292;11.820;2023-02-15T00:48:47;0.86;99.99
67722;SHT31;58309;45.292;11.820;2023-02-15T00:51:13;0.81;99.99
67722;SHT31;58309;45.292;11.820;2023-02-15T00:53:39;0.78;99.99
67722;SHT31;58309;45.292;11.820;2023-02-15T00:56:04;0.76;99.99
67722;SHT31;58309;45.292;11.820;2023-02-15T00:58:30;0.79;99.99
67722;SHT31;58309;45.292;11.820;2023-02-15T01:01:09;0.75;99.99
67722;SHT31;58309;45.292;11.820;2023-02-15T01:03:35;0.76;99.99
67722;SHT31;58309;45.292;11.820;2023-02-15T01:06:02;0.69;99.99
67722;SHT31;58309;45.292;11.820;2023-02-15T01:08:28;0.65;99.99
67722;SHT31;58309;45.292;11.820;2023-02-15T01:10:54;0.61;99.99
67722;SHT31;58309;45.292;11.820;2023-02-15T01:13:19;0.61;99.99
67722;SHT31;58309;45.292;11.820;2023-02-15T01:15:45;0.57;99.99
67722;SHT31;58309;45.292;11.820;2023-02-15T01:18:17;0.55;99.99
67722;SHT31;58309;45.292;11.820;2023-02-15T01:20:42;0.54;99.99
67722;SHT31;58309;45.292;11.820;2023-02-15T01:23:08;0.50;99.99
67722;SHT31;58309;45.292;11.820;2023-02-15T01:25:34;0.51;99.99
67722;SHT31;58309;45.292;11.820;2023-02-15T01:28:01;0.47;99.99
67722;SHT31;58309;45.292;11.820;2023-02-15T01:30:26;0.47;99.99
67722;SHT31;58309;45.292;11.820;2023-02-15T01:32:52;0.44;99.99
67722;SHT31;58309;45.292;11.820;2023-02-15T01:35:18;0.38;99.99
67722;SHT31;58309;45.292;11.820;2023-02-15T01:37:43;0.38;99.99
67722;SHT31;58309;45.292;11.820;2023-02-15T01:40:13;0.31;99.99
67722;SHT31;58309;45.292;11.820;2023-02-15T01:42:39;0.28;99.99
67722;SHT31;58309;45.292;11.820;2023-02-15T01:45:30;0.21;99.99
67722;SHT31;58309;45.292;11.820;2023-02-15T01:48:03;0.21;99.99
67722;SHT31;58309;45.292;11.820;2023-02-15T01:50:32;0.17;99.99
67722;SHT31;58309;45.292;11.820;2023-02-15T01:55:33;0.20;99.99
67722;SHT31;58309;45.292;11.820;2023-02-15T01:57:59;0.21;99.99
67722;SHT31;58309;45.292;11.820;2023-02-15T02:00:26;0.21;99.99
67722;SHT31;58309;45.292;11.820;2023-02-15T02:02:53;0.17;99.99
67722;SHT31;58309;45.292;11.820;2023-02-15T02:05:20;0.11;99.99
67722;SHT31;58309;45.292;11.820;2023-02-15T02:07:46;0.20;99.99
67722;SHT31;58309;45.292;11.820;2023-02-15T02:10:17;0.24;99.99
67722;SHT31;58309;45.292;11.820;2023-02-15T02:12:45;0.30;99.99
67722;SHT31;58309;45.292;11.820;2023-02-15T02:15:12;0.45;99.99
67722;SHT31;58309;45.292;11.820;2023-02-15T02:18:10;0.62;99.99
67722;SHT31;58309;45.292;11.820;2023-02-15T02:26:23;0.69;99.99
67722;SHT31;58309;45.292;11.820;2023-02-15T02:42:14;0.61;99.99
67722;SHT31;58309;45.292;11.820;2023-02-15T02:44:53;0.60;99.99
67722;SHT31;58309;45.292;11.820;2023-02-15T02:49:56;0.60;99.99
67722;SHT31;58309;45.292;11.820;2023-02-15T02:55:07;0.48;99.99
67722;SHT31;58309;45.292;11.820;2023-02-15T02:57:37;0.41;99.99
67722;SHT31;58309;45.292;11.820;2023-02-15T03:00:07;0.32;99.99
67722;SHT31;58309;45.292;11.820;2023-02-15T03:02:38;0.23;99.99
67722;SHT31;58309;45.292;11.820;2023-02-15T03:05:09;0.11;99.99
67722;SHT31;58309;45.292;11.820;2023-02-15T03:07:36;0.03;99.99
67722;SHT31;58309;45.292;11.820;2023-02-15T03:10:04;-0.06;99.99
67722;SHT31;58309;45.292;11.820;2023-02-15T03:12:37;-0.11;99.99
67722;SHT31;58309;45.292;11.820;2023-02-15T03:17:36;-0.15;99.99
67722;SHT31;58309;45.292;11.820;2023-02-15T03:23:06;-0.25;99.99
67722;SHT31;58309;45.292;11.820;2023-02-15T03:28:42;-0.27;99.99
67722;SHT31;58309;45.292;11.820;2023-02-15T03:31:09;-0.34;99.99
67722;SHT31;58309;45.292;11.820;2023-02-15T03:33:40;-0.38;99.99
67722;SHT31;58309;45.292;11.820;2023-02-15T03:39:20;-0.41;99.99
67722;SHT31;58309;45.292;11.820;2023-02-15T03:45:03;-0.48;99.99
67722;SHT31;58309;45.292;11.820;2023-02-15T03:47:37;-0.49;99.99
67722;SHT31;58309;45.292;11.820;2023-02-15T03:50:19;-0.54;99.99
67722;SHT31;58309;45.292;11.820;2023-02-15T03:53:06;-0.57;99.99
67722;SHT31;58309;45.292;11.820;2023-02-15T03:55:35;-0.59;99.99
67722;SHT31;58309;45.292;11.820;2023-02-15T03:58:01;-0.65;99.99
67722;SHT31;58309;45.292;11.820;2023-02-15T04:00:52;-0.66;99.99
67722;SHT31;58309;45.292;11.820;2023-02-15T04:03:47;-0.66;99.99
67722;SHT31;58309;45.292;11.820;2023-02-15T04:06:15;-0.70;99.99
67722;SHT31;58309;45.292;11.820;2023-02-15T04:08:40;-0.76;99.99
67722;SHT31;58309;45.292;11.820;2023-02-15T04:11:24;-0.72;99.99
67722;SHT31;58309;45.292;11.820;2023-02-15T04:13:50;-0.66;99.99
67722;SHT31;58309;45.292;11.820;2023-02-15T04:16:22;-0.49;99.99
67722;SHT31;58309;45.292;11.820;2023-02-15T04:18:48;-0.34;99.99
67722;SHT31;58309;45.292;11.820;2023-02-15T04:21:32;-0.27;99.99
67722;SHT31;58309;45.292;11.820;2023-02-15T04:24:16;-0.25;99.99
67722;SHT31;58309;45.292;11.820;2023-02-15T04:27:01;-0.34;99.99
67722;SHT31;58309;45.292;11.820;2023-02-15T04:29:28;-0.31;99.99
67722;SHT31;58309;45.292;11.820;2023-02-15T04:31:55;-0.22;99.99
67722;SHT31;58309;45.292;11.820;2023-02-15T04:34:21;-0.30;99.99
67722;SHT31;58309;45.292;11.820;2023-02-15T04:36:46;-0.38;99.99
67722;SHT31;58309;45.292;11.820;2023-02-15T04:39:13;-0.47;99.99
67722;SHT31;58309;45.292;11.820;2023-02-15T04:41:39;-0.55;99.99
67722;SHT31;58309;45.292;11.820;2023-02-15T04:44:05;-0.66;99.99
67722;SHT31;58309;45.292;11.820;2023-02-15T04:46:30;-0.78;99.99
67722;SHT31;58309;45.292;11.820;2023-02-15T04:48:56;-0.85;99.99
67722;SHT31;58309;45.292;11.820;2023-02-15T04:51:23;-0.92;99.99
67722;SHT31;58309;45.292;11.820;2023-02-15T04:53:48;-1.00;99.99
67722;SHT31;58309;45.292;11.820;2023-02-15T04:56:14;-1.04;99.99
67722;SHT31;58309;45.292;11.820;2023-02-15T04:58:40;-1.07;99.99
67722;SHT31;58309;45.292;11.820;2023-02-15T05:01:07;-1.10;99.99
67722;SHT31;58309;45.292;11.820;2023-02-15T05:03:33;-1.10;99.99
67722;SHT31;58309;45.292;11.820;2023-02-15T05:05:58;-1.10;99.99
67722;SHT31;58309;45.292;11.820;2023-02-15T05:08:24;-1.06;99.99
67722;SHT31;58309;45.292;11.820;2023-02-15T05:10:50;-1.00;99.99
67722;SHT31;58309;45.292;11.820;2023-02-15T05:13:16;-0.96;99.99
67722;SHT31;58309;45.292;11.820;2023-02-15T05:15:47;-1.00;99.99
67722;SHT31;58309;45.292;11.820;2023-02-15T05:18:12;-1.07;99.99
67722;SHT31;58309;45.292;11.820;2023-02-15T05:20:38;-1.10;99.99
67722;SHT31;58309;45.292;11.820;2023-02-15T05:23:03;-1.14;99.99
67722;SHT31;58309;45.292;11.820;2023-02-15T05:25:29;-1.01;99.99
67722;SHT31;58309;45.292;11.820;2023-02-15T05:28:13;-1.00;99.99
67722;SHT31;58309;45.292;11.820;2023-02-15T05:30:45;-1.03;99.99
67722;SHT31;58309;45.292;11.820;2023-02-15T05:33:10;-1.06;99.99
67722;SHT31;58309;45.292;11.820;2023-02-15T05:35:36;-1.13;99.99
67722;SHT31;58309;45.292;11.820;2023-02-15T05:38:01;-1.13;99.99
67722;SHT31;58309;45.292;11.820;2023-02-15T05:40:27;-1.16;99.99
67722;SHT31;58309;45.292;11.820;2023-02-15T05:42:52;-1.21;99.99
67722;SHT31;58309;45.292;11.820;2023-02-15T05:45:18;-1.23;99.99
67722;SHT31;58309;45.292;11.820;2023-02-15T05:47:43;-1.24;99.99
67722;SHT31;58309;45.292;11.820;2023-02-15T05:50:09;-1.24;99.99
67722;SHT31;58309;45.292;11.820;2023-02-15T05:52:36;-1.19;99.99
67722;SHT31;58309;45.292;11.820;2023-02-15T05:55:02;-1.23;99.99
67722;SHT31;58309;45.292;11.820;2023-02-15T05:57:29;-1.21;99.99
67722;SHT31;58309;45.292;11.820;2023-02-15T05:59:55;-1.17;99.99
67722;SHT31;58309;45.292;11.820;2023-02-15T06:02:21;-1.19;99.99
67722;SHT31;58309;45.292;11.820;2023-02-15T06:04:46;-1.17;99.99
67722;SHT31;58309;45.292;11.820;2023-02-15T06:07:12;-1.24;99.99
67722;SHT31;58309;45.292;11.820;2023-02-15T06:09:37;-1.29;99.99
67722;SHT31;58309;45.292;11.820;2023-02-15T06:12:03;-1.34;99.99
67722;SHT31;58309;45.292;11.820;2023-02-15T06:14:28;-1.36;99.99
67722;SHT31;58309;45.292;11.820;2023-02-15T06:16:54;-1.36;99.99
67722;SHT31;58309;45.292;11.820;2023-02-15T06:19:19;-1.21;99.99
67722;SHT31;58309;45.292;11.820;2023-02-15T06:21:46;-1.16;99.99
67722;SHT31;58309;45.292;11.820;2023-02-15T06:24:12;-1.17;99.99
67722;SHT31;58309;45.292;11.820;2023-02-15T06:26:37;-1.19;99.99
67722;SHT31;58309;45.292;11.820;2023-02-15T06:29:03;-1.21;99.99
67722;SHT31;58309;45.292;11.820;2023-02-15T06:31:29;-1.11;99.99
67722;SHT31;58309;45.292;11.820;2023-02-15T06:33:54;-1.11;99.99
67722;SHT31;58309;45.292;11.820;2023-02-15T06:36:30;-1.09;99.99
67722;SHT31;58309;45.292;11.820;2023-02-15T06:38:56;-1.03;99.99
67722;SHT31;58309;45.292;11.820;2023-02-15T06:41:22;-0.90;99.99
67722;SHT31;58309;45.292;11.820;2023-02-15T06:43:48;-0.88;99.99
67722;SHT31;58309;45.292;11.820;2023-02-15T06:46:13;-0.83;99.99
67722;SHT31;58309;45.292;11.820;2023-02-15T06:48:39;-0.76;99.99
67722;SHT31;58309;45.292;11.820;2023-02-15T06:51:05;-0.65;99.99
67722;SHT31;58309;45.292;11.820;2023-02-15T06:53:30;-0.52;99.99
67722;SHT31;58309;45.292;11.820;2023-02-15T06:56:06;-0.47;99.99
67722;SHT31;58309;45.292;11.820;2023-02-15T06:58:38;-0.42;99.99
67722;SHT31;58309;45.292;11.820;2023-02-15T07:01:04;-0.35;99.99
67722;SHT31;58309;45.292;11.820;2023-02-15T07:03:30;-0.24;99.99
67722;SHT31;58309;45.292;11.820;2023-02-15T07:05:57;-0.07;99.99
67722;SHT31;58309;45.292;11.820;2023-02-15T07:08:24;0.00;99.99
67722;SHT31;58309;45.292;11.820;2023-02-15T07:10:51;0.07;99.99
67722;SHT31;58309;45.292;11.820;2023-02-15T07:13:17;0.20;99.99
67722;SHT31;58309;45.292;11.820;2023-02-15T07:15:43;0.28;99.99
67722;SHT31;58309;45.292;11.820;2023-02-15T07:18:09;0.54;99.99
67722;SHT31;58309;45.292;11.820;2023-02-15T07:20:36;0.73;99.99
67722;SHT31;58309;45.292;11.820;2023-02-15T07:23:03;0.96;99.99
67722;SHT31;58309;45.292;11.820;2023-02-15T07:25:29;1.07;99.99
67722;SHT31;58309;45.292;11.820;2023-02-15T07:27:56;1.20;99.99
67722;SHT31;58309;45.292;11.820;2023-02-15T07:30:22;1.27;99.99
67722;SHT31;58309;45.292;11.820;2023-02-15T07:32:48;1.40;99.99
67722;SHT31;58309;45.292;11.820;2023-02-15T07:35:32;1.51;99.99
67722;SHT31;58309;45.292;11.820;2023-02-15T07:37:58;1.64;99.99
67722;SHT31;58309;45.292;11.820;2023-02-15T07:40:24;1.81;99.99
67722;SHT31;58309;45.292;11.820;2023-02-15T07:42:50;1.99;99.99
67722;SHT31;58309;45.292;11.820;2023-02-15T07:45:20;2.12;99.99
67722;SHT31;58309;45.292;11.820;2023-02-15T07:47:46;2.28;99.99
67722;SHT31;58309;45.292;11.820;2023-02-15T07:50:12;2.40;99.99
67722;SHT31;58309;45.292;11.820;2023-02-15T07:52:38;2.53;99.99
67722;SHT31;58309;45.292;11.820;2023-02-15T07:55:04;2.64;99.99
67722;SHT31;58309;45.292;11.820;2023-02-15T07:57:30;2.76;99.99
67722;SHT31;58309;45.292;11.820;2023-02-15T07:59:56;2.93;99.99
67722;SHT31;58309;45.292;11.820;2023-02-15T08:02:22;3.03;99.99
67722;SHT31;58309;45.292;11.820;2023-02-15T08:04:47;3.16;99.77
67722;SHT31;58309;45.292;11.820;2023-02-15T08:07:13;3.29;99.57
67722;SHT31;58309;45.292;11.820;2023-02-15T08:09:38;3.43;99.26
67722;SHT31;58309;45.292;11.820;2023-02-15T08:12:04;3.60;99.26
67722;SHT31;58309;45.292;11.820;2023-02-15T08:14:30;3.75;98.97
67722;SHT31;58309;45.292;11.820;2023-02-15T08:16:59;3.86;97.36
67722;SHT31;58309;45.292;11.820;2023-02-15T08:19:31;3.98;94.83
67722;SHT31;58309;45.292;11.820;2023-02-15T08:22:02;4.06;95.33
67722;SHT31;58309;45.292;11.820;2023-02-15T08:24:36;4.10;96.23
67722;SHT31;58309;45.292;11.820;2023-02-15T08:27:03;4.20;95.85
67722;SHT31;58309;45.292;11.820;2023-02-15T08:29:30;4.37;95.90
67722;SHT31;58309;45.292;11.820;2023-02-15T08:31:59;4.54;95.26
67722;SHT31;58309;45.292;11.820;2023-02-15T08:34:28;4.72;96.17
67722;SHT31;58309;45.292;11.820;2023-02-15T08:36:54;4.95;94.34
67722;SHT31;58309;45.292;11.820;2023-02-15T08:39:20;5.13;94.52
67722;SHT31;58309;45.292;11.820;2023-02-15T08:41:47;5.44;95.16
67722;SHT31;58309;45.292;11.820;2023-02-15T08:44:14;5.69;94.45
67722;SHT31;58309;45.292;11.820;2023-02-15T08:46:42;6.56;91.38
67722;SHT31;58309;45.292;11.820;2023-02-15T08:49:10;7.86;86.38
67722;SHT31;58309;45.292;11.820;2023-02-15T08:51:37;9.26;82.83
67722;SHT31;58309;45.292;11.820;2023-02-15T08:54:09;10.46;80.84
67722;SHT31;58309;45.292;11.820;2023-02-15T08:56:37;11.33;75.56
67722;SHT31;58309;45.292;11.820;2023-02-15T08:59:04;11.95;69.43
67722;SHT31;58309;45.292;11.820;2023-02-15T09:01:32;12.91;67.85
67722;SHT31;58309;45.292;11.820;2023-02-15T09:04:03;13.67;63.59
67722;SHT31;58309;45.292;11.820;2023-02-15T09:06:34;14.21;68.01
67722;SHT31;58309;45.292;11.820;2023-02-15T09:09:00;14.59;67.92
67722;SHT31;58309;45.292;11.820;2023-02-15T09:11:28;14.18;61.59
67722;SHT31;58309;45.292;11.820;2023-02-15T09:13:54;14.90;60.15
67722;SHT31;58309;45.292;11.820;2023-02-15T09:16:21;15.34;64.91
67722;SHT31;58309;45.292;11.820;2023-02-15T09:18:47;15.11;59.58
67722;SHT31;58309;45.292;11.820;2023-02-15T09:21:21;14.70;59.21
67722;SHT31;58309;45.292;11.820;2023-02-15T09:23:49;15.21;60.74
67722;SHT31;58309;45.292;11.820;2023-02-15T09:26:19;15.56;60.47
67722;SHT31;58309;45.292;11.820;2023-02-15T09:28:46;15.67;57.63
67722;SHT31;58309;45.292;11.820;2023-02-15T09:31:16;15.49;56.19
67722;SHT31;58309;45.292;11.820;2023-02-15T09:33:42;16.31;55.84
67722;SHT31;58309;45.292;11.820;2023-02-15T09:36:40;16.88;54.71
67722;SHT31;58309;45.292;11.820;2023-02-15T09:39:13;17.73;55.95
67722;SHT31;58309;45.292;11.820;2023-02-15T09:47:04;18.45;50.52
67722;SHT31;58309;45.292;11.820;2023-02-15T10:00:08;18.12;50.78
67722;SHT31;58309;45.292;11.820;2023-02-15T10:02:48;18.08;49.74
67722;SHT31;58309;45.292;11.820;2023-02-15T10:17:14;17.39;52.42
67722;SHT31;58309;45.292;11.820;2023-02-15T10:25:12;17.85;51.16
67722;SHT31;58309;45.292;11.820;2023-02-15T10:27:49;18.46;49.37
67722;SHT31;58309;45.292;11.820;2023-02-15T10:30:15;18.96;49.19
67722;SHT31;58309;45.292;11.820;2023-02-15T10:41:09;20.41;45.26
67722;SHT31;58309;45.292;11.820;2023-02-15T10:43:54;21.26;44.33
67722;SHT31;58309;45.292;11.820;2023-02-15T11:00:11;22.00;41.19
67722;SHT31;58309;45.292;11.820;2023-02-15T11:08:18;21.62;41.73
67722;SHT31;58309;45.292;11.820;2023-02-15T11:10:54;21.33;42.66
67722;SHT31;58309;45.292;11.820;2023-02-15T11:13:22;21.90;42.52
67722;SHT31;58309;45.292;11.820;2023-02-15T11:21:09;22.38;41.88
67722;SHT31;58309;45.292;11.820;2023-02-15T11:23:42;22.66;40.04
67722;SHT31;58309;45.292;11.820;2023-02-15T11:26:28;22.49;40.46
67722;SHT31;58309;45.292;11.820;2023-02-15T11:29:01;22.27;41.13
67722;SHT31;58309;45.292;11.820;2023-02-15T11:31:41;22.52;40.77
67722;SHT31;58309;45.292;11.820;2023-02-15T11:34:13;21.97;41.10
67722;SHT31;58309;45.292;11.820;2023-02-15T11:36:45;22.34;41.14
67722;SHT31;58309;45.292;11.820;2023-02-15T11:39:17;22.76;40.38
67722;SHT31;58309;45.292;11.820;2023-02-15T11:41:55;22.81;40.49
67722;SHT31;58309;45.292;11.820;2023-02-15T11:44:26;22.82;38.89
67722;SHT31;58309;45.292;11.820;2023-02-15T11:46:53;21.74;42.89
67722;SHT31;58309;45.292;11.820;2023-02-15T11:49:34;22.49;40.71
67722;SHT31;58309;45.292;11.820;2023-02-15T11:52:02;23.03;40.58
67722;SHT31;58309;45.292;11.820;2023-02-15T11:54:33;23.19;38.35
67722;SHT31;58309;45.292;11.820;2023-02-15T11:57:32;22.73;39.48
67722;SHT31;58309;45.292;11.820;2023-02-15T12:02:37;21.83;41.41
67722;SHT31;58309;45.292;11.820;2023-02-15T12:05:10;21.92;40.96
67722;SHT31;58309;45.292;11.820;2023-02-15T12:07:45;22.03;40.15
67722;SHT31;58309;45.292;11.820;2023-02-15T12:12:43;22.47;40.49
67722;SHT31;58309;45.292;11.820;2023-02-15T12:15:13;23.02;38.04
67722;SHT31;58309;45.292;11.820;2023-02-15T12:17:50;22.98;38.06
67722;SHT31;58309;45.292;11.820;2023-02-15T12:23:06;22.85;38.68
67722;SHT31;58309;45.292;11.820;2023-02-15T12:25:50;22.73;37.37
67722;SHT31;58309;45.292;11.820;2023-02-15T12:28:36;22.48;38.17
67722;SHT31;58309;45.292;11.820;2023-02-15T12:31:07;22.24;39.74
67722;SHT31;58309;45.292;11.820;2023-02-15T12:33:39;22.55;38.63
67722;SHT31;58309;45.292;11.820;2023-02-15T12:36:15;22.82;38.45
67722;SHT31;58309;45.292;11.820;2023-02-15T12:38:42;22.52;37.77
67722;SHT31;58309;45.292;11.820;2023-02-15T12:41:26;22.48;37.32
67722;SHT31;58309;45.292;11.820;2023-02-15T12:44:20;22.40;38.87
67722;SHT31;58309;45.292;11.820;2023-02-15T12:49:23;21.94;40.71
67722;SHT31;58309;45.292;11.820;2023-02-15T12:51:57;22.14;40.03
67722;SHT31;58309;45.292;11.820;2023-02-15T12:54:42;22.37;39.43
67722;SHT31;58309;45.292;11.820;2023-02-15T12:57:31;22.49;37.99
67722;SHT31;58309;45.292;11.820;2023-02-15T13:02:49;21.04;39.89
67722;SHT31;58309;45.292;11.820;2023-02-15T13:05:21;20.88;40.41
67722;SHT31;58309;45.292;11.820;2023-02-15T13:07:51;20.78;40.22
67722;SHT31;58309;45.292;11.820;2023-02-15T13:10:22;20.65;40.42
67722;SHT31;58309;45.292;11.820;2023-02-15T13:12:50;20.29;40.21
67722;SHT31;58309;45.292;11.820;2023-02-15T13:15:30;19.92;42.95
67722;SHT31;58309;45.292;11.820;2023-02-15T13:17:58;19.54;42.66
67722;SHT31;58309;45.292;11.820;2023-02-15T13:20:25;18.92;44.03
67722;SHT31;58309;45.292;11.820;2023-02-15T13:22:59;18.60;45.19
67722;SHT31;58309;45.292;11.820;2023-02-15T13:25:28;18.34;44.79
67722;SHT31;58309;45.292;11.820;2023-02-15T13:28:00;17.84;46.10
67722;SHT31;58309;45.292;11.820;2023-02-15T13:30:35;17.77;47.68
67722;SHT31;58309;45.292;11.820;2023-02-15T13:33:06;17.73;47.72
67722;SHT31;58309;45.292;11.820;2023-02-15T13:41:04;17.77;47.76
67722;SHT31;58309;45.292;11.820;2023-02-15T13:52:24;17.03;49.70
67722;SHT31;58309;45.292;11.820;2023-02-15T14:09:20;16.57;51.84
67722;SHT31;58309;45.292;11.820;2023-02-15T14:17:09;16.54;51.68
67722;SHT31;58309;45.292;11.820;2023-02-15T14:19:51;16.74;51.06
67722;SHT31;58309;45.292;11.820;2023-02-15T14:30:36;17.60;48.95
67722;SHT31;58309;45.292;11.820;2023-02-15T14:35:30;17.57;48.91
67722;SHT31;58309;45.292;11.820;2023-02-15T14:40:59;17.54;48.97
67722;SHT31;58309;45.292;11.820;2023-02-15T14:46:01;17.27;50.58
67722;SHT31;58309;45.292;11.820;2023-02-15T14:48:32;16.99;50.38
67722;SHT31;58309;45.292;11.820;2023-02-15T14:50:58;16.71;51.67
67722;SHT31;58309;45.292;11.820;2023-02-15T14:56:17;16.17;51.48
67722;SHT31;58309;45.292;11.820;2023-02-15T15:01:50;15.92;52.74
67722;SHT31;58309;45.292;11.820;2023-02-15T15:04:21;15.87;53.25
67722;SHT31;58309;45.292;11.820;2023-02-15T15:09:48;15.82;53.58
67722;SHT31;58309;45.292;11.820;2023-02-15T15:14:49;15.75;55.40
67722;SHT31;58309;45.292;11.820;2023-02-15T15:22:49;15.18;55.92
67722;SHT31;58309;45.292;11.820;2023-02-15T15:50:53;13.50;62.27
67722;SHT31;58309;45.292;11.820;2023-02-15T15:53:24;13.34;63.68
67722;SHT31;58309;45.292;11.820;2023-02-15T15:55:54;13.10;64.64
67722;SHT31;58309;45.292;11.820;2023-02-15T15:58:21;12.86;65.32
67722;SHT31;58309;45.292;11.820;2023-02-15T16:00:50;12.71;65.71
67722;SHT31;58309;45.292;11.820;2023-02-15T16:03:22;12.63;66.09
67722;SHT31;58309;45.292;11.820;2023-02-15T16:05:48;12.55;66.74
67722;SHT31;58309;45.292;11.820;2023-02-15T16:08:37;12.34;67.28
67722;SHT31;58309;45.292;11.820;2023-02-15T16:11:19;12.10;67.89
67722;SHT31;58309;45.292;11.820;2023-02-15T16:13:47;11.93;68.80
67722;SHT31;58309;45.292;11.820;2023-02-15T16:16:13;11.73;69.68
67722;SHT31;58309;45.292;11.820;2023-02-15T16:18:39;11.52;70.44
67722;SHT31;58309;45.292;11.820;2023-02-15T16:21:19;11.33;71.43
67722;SHT31;58309;45.292;11.820;2023-02-15T16:23:59;11.08;72.56
67722;SHT31;58309;45.292;11.820;2023-02-15T16:29:17;10.59;74.60
67722;SHT31;58309;45.292;11.820;2023-02-15T16:31:43;10.40;75.17
67722;SHT31;58309;45.292;11.820;2023-02-15T16:34:16;10.26;75.33
67722;SHT31;58309;45.292;11.820;2023-02-15T16:36:42;10.09;75.75
67722;SHT31;58309;45.292;11.820;2023-02-15T16:39:17;9.93;76.18
67722;SHT31;58309;45.292;11.820;2023-02-15T16:41:44;9.75;76.82
67722;SHT31;58309;45.292;11.820;2023-02-15T16:44:18;9.54;77.30
67722;SHT31;58309;45.292;11.820;2023-02-15T16:46:50;9.38;78.73
67722;SHT31;58309;45.292;11.820;2023-02-15T16:49:22;9.23;79.38
67722;SHT31;58309;45.292;11.820;2023-02-15T16:54:22;9.01;80.00
67722;SHT31;58309;45.292;11.820;2023-02-15T16:56:49;8.94;80.46
67722;SHT31;58309;45.292;11.820;2023-02-15T16:59:26;8.82;80.99
67722;SHT31;58309;45.292;11.820;2023-02-15T17:01:54;8.70;81.45
67722;SHT31;58309;45.292;11.820;2023-02-15T17:07:14;8.39;82.61
67722;SHT31;58309;45.292;11.820;2023-02-15T17:09:52;8.25;82.61
67722;SHT31;58309;45.292;11.820;2023-02-15T17:12:47;8.07;83.13
67722;SHT31;58309;45.292;11.820;2023-02-15T17:18:01;7.73;84.15
67722;SHT31;58309;45.292;11.820;2023-02-15T17:20:27;7.55;84.52
67722;SHT31;58309;45.292;11.820;2023-02-15T17:22:53;7.38;85.04
67722;SHT31;58309;45.292;11.820;2023-02-15T17:25:23;7.22;85.62
67722;SHT31;58309;45.292;11.820;2023-02-15T17:27:53;7.05;86.20
67722;SHT31;58309;45.292;11.820;2023-02-15T17:30:28;6.94;86.64
67722;SHT31;58309;45.292;11.820;2023-02-15T17:33:00;6.98;87.31
67722;SHT31;58309;45.292;11.820;2023-02-15T17:35:31;7.05;87.10
67722;SHT31;58309;45.292;11.820;2023-02-15T17:40:31;7.12;86.71
67722;SHT31;58309;45.292;11.820;2023-02-15T17:42:57;7.11;87.62
67722;SHT31;58309;45.292;11.820;2023-02-15T17:45:26;7.07;87.54
67722;SHT31;58309;45.292;11.820;2023-02-15T17:47:52;7.07;87.71
67722;SHT31;58309;45.292;11.820;2023-02-15T17:50:23;6.97;87.68
67722;SHT31;58309;45.292;11.820;2023-02-15T17:52:50;6.97;88.10
67722;SHT31;58309;45.292;11.820;2023-02-15T17:55:19;6.81;88.23
67722;SHT31;58309;45.292;11.820;2023-02-15T17:58:06;6.73;88.08
67722;SHT31;58309;45.292;11.820;2023-02-15T18:00:34;6.63;88.56
67722;SHT31;58309;45.292;11.820;2023-02-15T18:03:19;6.56;88.62
67722;SHT31;58309;45.292;11.820;2023-02-15T18:06:03;6.51;88.84
67722;SHT31;58309;45.292;11.820;2023-02-15T18:08:47;6.57;89.26
67722;SHT31;58309;45.292;11.820;2023-02-15T18:11:31;6.46;88.92
67722;SHT31;58309;45.292;11.820;2023-02-15T18:14:08;6.40;89.76
67722;SHT31;58309;45.292;11.820;2023-02-15T18:16:39;6.32;89.73
67722;SHT31;58309;45.292;11.820;2023-02-15T18:19:22;6.30;89.98
67722;SHT31;58309;45.292;11.820;2023-02-15T18:21:48;6.28;90.20
67722;SHT31;58309;45.292;11.820;2023-02-15T18:24:16;6.19;89.89
67722;SHT31;58309;45.292;11.820;2023-02-15T18:26:42;6.18;90.25
67722;SHT31;58309;45.292;11.820;2023-02-15T18:29:08;6.15;90.26
67722;SHT31;58309;45.292;11.820;2023-02-15T18:31:34;6.09;90.66
67722;SHT31;58309;45.292;11.820;2023-02-15T18:34:00;6.09;90.89
67722;SHT31;58309;45.292;11.820;2023-02-15T18:36:39;6.02;90.44
67722;SHT31;58309;45.292;11.820;2023-02-15T18:39:30;5.87;90.50
67722;SHT31;58309;45.292;11.820;2023-02-15T18:41:58;5.77;90.79
67722;SHT31;58309;45.292;11.820;2023-02-15T18:44:25;5.61;90.99
67722;SHT31;58309;45.292;11.820;2023-02-15T18:46:50;5.52;91.42
67722;SHT31;58309;45.292;11.820;2023-02-15T18:49:16;5.47;91.75
67722;SHT31;58309;45.292;11.820;2023-02-15T18:51:42;5.38;91.96
67722;SHT31;58309;45.292;11.820;2023-02-15T18:54:26;5.26;92.24
67722;SHT31;58309;45.292;11.820;2023-02-15T18:56:57;5.16;92.53
67722;SHT31;58309;45.292;11.820;2023-02-15T18:59:24;5.12;93.24
67722;SHT31;58309;45.292;11.820;2023-02-15T19:01:50;5.13;93.84
67722;SHT31;58309;45.292;11.820;2023-02-15T19:04:17;5.15;93.81
67722;SHT31;58309;45.292;11.820;2023-02-15T19:06:47;5.12;93.49
67722;SHT31;58309;45.292;11.820;2023-02-15T19:09:16;5.12;93.56
67722;SHT31;58309;45.292;11.820;2023-02-15T19:11:50;5.09;93.59
67722;SHT31;58309;45.292;11.820;2023-02-15T19:16:48;4.95;94.15
67722;SHT31;58309;45.292;11.820;2023-02-15T19:19:14;4.95;94.12
67722;SHT31;58309;45.292;11.820;2023-02-15T19:21:39;4.96;94.72
67722;SHT31;58309;45.292;11.820;2023-02-15T19:24:07;4.83;93.83
67722;SHT31;58309;45.292;11.820;2023-02-15T19:26:39;4.71;93.91
67722;SHT31;58309;45.292;11.820;2023-02-15T19:29:06;4.58;94.23
67722;SHT31;58309;45.292;11.820;2023-02-15T19:31:34;4.44;94.32